createdAt,value
2023-03-29T00:07:43.997Z,2.83
2023-03-29T00:17:47.976Z,2.15
2023-03-29T00:27:50.670Z,2.60
2023-03-29T00:37:54.654Z,2.53
2023-03-29T00:48:00.023Z,2.17
2023-03-29T00:58:05.660Z,2.45
2023-03-29T01:08:18.309Z,2.22
2023-03-29T01:18:23.008Z,2.65
2023-03-29T01:28:32.741Z,1.95
2023-03-29T01:38:42.697Z,2.53
2023-03-29T01:48:51.733Z,2.53
2023-03-29T01:58:58.601Z,2.00
2023-03-29T02:09:04.736Z,2.10
2023-03-29T02:19:08.897Z,2.38
2023-03-29T02:29:13.221Z,2.03
2023-03-29T02:39:18.102Z,2.25
2023-03-29T02:49:22.802Z,3.10
2023-03-29T02:59:25.841Z,3.33
2023-03-29T03:09:29.844Z,3.55
2023-03-29T03:19:32.528Z,4.50
2023-03-29T03:29:38.474Z,5.07
2023-03-29T03:39:41.538Z,5.30
2023-03-29T03:49:45.637Z,5.57
2023-03-29T03:59:48.873Z,5.75
2023-03-29T04:09:52.970Z,6.65
2023-03-29T04:19:55.630Z,6.75
2023-03-29T04:29:59.686Z,7.90
2023-03-29T04:40:03.858Z,6.75
2023-03-29T04:50:09.319Z,6.15
2023-03-29T05:00:15.256Z,6.57
2023-03-29T05:10:19.880Z,6.65
2023-03-29T05:20:22.716Z,6.70
2023-03-29T05:30:26.669Z,6.13
2023-03-29T05:40:31.330Z,6.45
2023-03-29T05:50:36.818Z,5.43
2023-03-29T06:00:39.884Z,6.57
2023-03-29T06:10:44.541Z,5.63
2023-03-29T06:20:49.149Z,7.03
2023-03-29T06:30:56.149Z,6.35
2023-03-29T06:41:03.774Z,7.40
2023-03-29T06:51:08.726Z,7.03
2023-03-29T07:01:11.589Z,6.30
2023-03-29T07:11:18.639Z,7.13
2023-03-29T07:21:21.531Z,8.07
2023-03-29T07:31:25.715Z,8.75
2023-03-29T07:41:28.447Z,7.43
2023-03-29T07:51:32.407Z,7.97
2023-03-29T08:01:35.589Z,8.77
2023-03-29T08:11:39.902Z,8.13
2023-03-29T08:21:42.549Z,9.10
2023-03-29T08:31:46.562Z,8.80
2023-03-29T08:41:58.578Z,7.75
2023-03-29T08:52:05.145Z,8.18
2023-03-29T09:02:17.769Z,7.38
2023-03-29T09:12:31.402Z,8.15
2023-03-29T09:22:43.824Z,6.60
2023-03-29T09:32:53.494Z,6.53
2023-03-29T09:42:58.390Z,7.03
2023-03-29T09:53:02.607Z,6.45
2023-03-29T10:03:05.504Z,6.55
2023-03-29T10:13:16.570Z,6.60
2023-03-29T10:23:19.902Z,6.15
2023-03-29T10:33:25.584Z,6.78
2023-03-29T10:43:32.201Z,7.40
2023-03-29T10:53:38.107Z,6.35
2023-03-29T11:03:59.483Z,6.70
2023-03-29T11:14:09.214Z,6.28
2023-03-29T11:24:38.457Z,7.23
2023-03-29T11:34:56.135Z,5.95
2023-03-29T11:45:01.625Z,6.80
2023-03-29T11:55:09.212Z,6.72
2023-03-29T12:05:18.981Z,6.03
2023-03-29T12:15:25.235Z,6.43
2023-03-29T12:25:32.862Z,6.47
2023-03-29T12:35:43.144Z,6.30
2023-03-29T12:45:48.622Z,6.30
2023-03-29T12:55:57.238Z,5.18
2023-03-29T13:06:02.452Z,5.88
2023-03-29T13:16:17.381Z,5.35
2023-03-29T13:26:42.685Z,4.85
2023-03-29T13:36:57.828Z,5.05
2023-03-29T13:47:06.403Z,4.78
2023-03-29T13:57:17.082Z,4.53
2023-03-29T14:07:26.115Z,4.40
2023-03-29T14:17:30.223Z,4.40
2023-03-29T14:27:33.592Z,3.92
2023-03-29T14:37:38.563Z,3.80
2023-03-29T14:47:42.128Z,4.03
2023-03-29T14:57:49.169Z,4.30
2023-03-29T15:07:52.081Z,4.72
2023-03-29T15:17:58.280Z,4.57
2023-03-29T15:28:01.751Z,4.70
2023-03-29T15:38:06.850Z,4.50
2023-03-29T15:48:16.671Z,5.85
2023-03-29T15:58:27.043Z,9.02
2023-03-29T16:08:29.674Z,6.07
2023-03-29T16:18:33.763Z,5.80
2023-03-29T16:28:36.904Z,5.70
2023-03-29T16:38:41.487Z,7.43
2023-03-29T16:48:44.098Z,8.07
2023-03-29T16:58:48.108Z,5.80
2023-03-29T17:08:51.171Z,6.00
2023-03-29T17:18:55.171Z,6.90
2023-03-29T17:28:57.863Z,5.28
2023-03-29T17:39:02.975Z,6.07
2023-03-29T17:49:06.176Z,6.13
2023-03-29T17:59:10.233Z,5.53
2023-03-29T18:09:13.865Z,8.73
2023-03-29T18:19:17.844Z,7.65
2023-03-29T18:29:20.932Z,7.15
2023-03-29T18:39:25.291Z,9.80
2023-03-29T18:49:28.314Z,7.50
2023-03-29T18:59:32.340Z,9.20
2023-03-29T19:09:35.655Z,7.80
2023-03-29T19:19:39.738Z,8.10
2023-03-29T19:29:42.418Z,8.60
2023-03-29T19:39:46.444Z,9.23
2023-03-29T19:49:49.264Z,9.88
2023-03-29T19:59:54.033Z,9.68
2023-03-29T20:09:56.928Z,9.70
2023-03-29T20:20:01.730Z,11.40
2023-03-29T20:30:04.696Z,12.70
2023-03-29T20:40:10.942Z,15.35
2023-03-29T20:50:13.634Z,14.25
2023-03-29T21:00:19.811Z,16.52
2023-03-29T21:10:23.592Z,16.10
2023-03-29T21:20:28.469Z,18.13
2023-03-29T21:30:32.174Z,17.38
2023-03-29T21:40:38.078Z,18.58
2023-03-29T21:50:41.021Z,17.83
2023-03-29T22:00:45.923Z,19.45
2023-03-29T22:10:55.270Z,18.38
2023-03-29T22:20:59.400Z,18.50
2023-03-29T22:31:03.785Z,17.58
2023-03-29T22:41:08.154Z,17.35
2023-03-29T22:51:10.925Z,16.48
2023-03-29T23:01:15.256Z,16.13
2023-03-29T23:11:18.185Z,15.88
2023-03-29T23:21:22.916Z,17.75
2023-03-29T23:31:25.779Z,16.40
2023-03-29T23:41:30.458Z,16.45
2023-03-29T23:51:34.997Z,17.67
